M I D A S
Marine Information and Data Acquisition System
Tripno 1933 of the Zeeleeuw from 2010-08-06 05:00:25 to 2010-08-06 16:27:48
Back to CruiseResearch ActivitiesStationsMapUnderway DataData graphs

EquipmentUnitsComment
TimeDGPSUTC
LatitudeDGPSDM.mWGS84
LongitudeDGPSDM.mWGS84
HeadingGyrodeg 
SOGDGPSknotsSpeed over ground
COGDGPSdegCourse over ground
DepthEcho soundermeters200 kHz
Missing or incorrect values are displayed as -999
Navigation data collected by the RV Zeeleeuw from 2010-08-06 05:01:29 to 2010-08-06 16:32:53
                                                                                    Next 1000 lines
Time Latitude Longitude Heading SOG COG Depth
2010-08-06 05:01:39 51°13.661 2°55.956 111.6 1 291 6.4
2010-08-06 05:01:44 51°13.662 2°55.953 111.6 1.5 293 -999
2010-08-06 05:01:49 51°13.663 2°55.949 111.9 2 293 -999
2010-08-06 05:01:54 51°13.665 2°55.943 112.1 2.6 293 6.4
2010-08-06 05:02:00 51°13.668 2°55.936 112.3 3 293 -999
2010-08-06 05:02:04 51°13.669 2°55.931 112.3 3.3 295 -999
2010-08-06 05:02:09 51°13.671 2°55.923 112.3 3.7 293 -999
2010-08-06 05:02:14 51°13.674 2°55.915 112.1 4 293 -999
2010-08-06 05:02:19 51°13.676 2°55.907 111.8 4.3 292 -999
2010-08-06 05:02:24 51°13.678 2°55.898 111.4 4.4 292 -999
2010-08-06 05:02:29 51°13.681 2°55.888 111.1 4.5 292 -999
2010-08-06 05:02:34 51°13.683 2°55.879 111 4.4 291 -999
2010-08-06 05:02:39 51°13.685 2°55.87 110.4 4.3 292 -999
2010-08-06 05:02:44 51°13.687 2°55.862 109.7 4.2 290 -999
2010-08-06 05:02:49 51°13.689 2°55.853 109 4.1 290 -999
2010-08-06 05:02:54 51°13.69 2°55.845 108.1 4 288 -999
2010-08-06 05:02:59 51°13.692 2°55.836 107.1 4 289 -999
2010-08-06 05:03:04 51°13.693 2°55.828 105.6 3.9 288 -999
2010-08-06 05:03:09 51°13.695 2°55.82 104.6 3.8 287 -999
2010-08-06 05:03:15 51°13.696 2°55.811 103.2 3.7 285 -999
2010-08-06 05:03:19 51°13.697 2°55.805 101.7 3.5 284 -999
2010-08-06 05:03:24 51°13.698 2°55.797 100 3.5 283 11.2
2010-08-06 05:03:29 51°13.699 2°55.79 98.3 3.3 282 12.1
2010-08-06 05:03:34 51°13.7 2°55.783 97 3.2 281 12.4
2010-08-06 05:03:39 51°13.701 2°55.776 95.9 3.1 280 12.9
2010-08-06 05:03:44 51°13.702 2°55.77 94.2 3 279 13.1
2010-08-06 05:03:48 51°13.702 2°55.765 92.3 2.9 278 13.5
2010-08-06 05:03:53 51°13.703 2°55.759 90.5 2.8 277 14.3
2010-08-06 05:03:58 51°13.703 2°55.754 88.9 2.3 278 14.1
2010-08-06 05:04:03 51°13.704 2°55.751 87.1 1.4 280 14
2010-08-06 05:04:08 51°13.704 2°55.749 84.1 1 290 13.9
2010-08-06 05:04:12 51°13.704 2°55.749 79.2 0.6 319 13.6
2010-08-06 05:04:18 51°13.705 2°55.749 73.2 0.6 14 13.7
2010-08-06 05:04:23 51°13.707 2°55.75 66.7 0.9 30 13.9
2010-08-06 05:04:27 51°13.707 2°55.751 59.7 1 26 14
2010-08-06 05:04:32 51°13.709 2°55.752 52.5 0.9 20 14
2010-08-06 05:04:37 51°13.709 2°55.752 47.3 0.4 14 14
2010-08-06 05:04:42 51°13.709 2°55.751 43.2 0.3 279 14.1
2010-08-06 05:04:47 51°13.709 2°55.75 39.2 0.7 232 14
2010-08-06 05:04:52 51°13.707 2°55.748 35.4 1.1 227 14.1
2010-08-06 05:04:56 51°13.706 2°55.746 32.2 1.4 221 13.8
2010-08-06 05:05:01 51°13.704 2°55.744 29.5 1.8 216 13.3
2010-08-06 05:05:07 51°13.701 2°55.741 26.9 2.1 211 -999
2010-08-06 05:05:12 51°13.698 2°55.739 23.8 2.1 210 -999
2010-08-06 05:05:18 51°13.695 2°55.736 21.1 1.9 206 -999
2010-08-06 05:05:23 51°13.694 2°55.735 19.2 1.5 206 -999
2010-08-06 05:05:29 51°13.692 2°55.734 17.6 0.7 200 -999
2010-08-06 05:05:34 51°13.692 2°55.733 14.5 0.4 254 -999
2010-08-06 05:05:39 51°13.693 2°55.733 9 0.4 338 -999
2010-08-06 05:05:44 51°13.694 2°55.732 3.7 0.9 341 -999
2010-08-06 05:05:49 51°13.696 2°55.732 357.9 1.3 346 -999
2010-08-06 05:05:54 51°13.698 2°55.73 352.1 1.9 342 -999
2010-08-06 05:05:59 51°13.701 2°55.728 346.6 1.8 341 -999
2010-08-06 05:06:04 51°13.705 2°55.726 341.9 2.8 337 -999
2010-08-06 05:06:09 51°13.709 2°55.723 338.3 2.8 335 -999
2010-08-06 05:06:14 51°13.714 2°55.719 336 3.7 333 12.8
2010-08-06 05:06:19 51°13.719 2°55.715 335.4 4.2 333 11.9
2010-08-06 05:06:24 51°13.725 2°55.71 335.1 4.5 333 12.9
2010-08-06 05:06:28 51°13.729 2°55.706 335 4.8 333 12.5
2010-08-06 05:06:33 51°13.736 2°55.701 335 5.2 333 12.4
2010-08-06 05:06:38 51°13.743 2°55.695 335 5.6 333 12.2
2010-08-06 05:06:43 51°13.75 2°55.689 335.1 5.9 333 12.1
2010-08-06 05:06:48 51°13.758 2°55.683 335.1 6.2 333 11.8
2010-08-06 05:06:52 51°13.764 2°55.678 335.5 6.5 334 11.9
2010-08-06 05:06:57 51°13.773 2°55.672 336.1 6.7 335 11.8
2010-08-06 05:07:02 51°13.781 2°55.665 336.5 6.9 335 11.9
2010-08-06 05:07:08 51°13.792 2°55.657 336.5 7.1 335 11.6
2010-08-06 05:07:12 51°13.8 2°55.652 336.5 7.3 335 11.9
2010-08-06 05:07:17 51°13.809 2°55.645 336.9 7.4 336 12
2010-08-06 05:07:22 51°13.819 2°55.639 337.3 7.6 336 11.8
2010-08-06 05:07:27 51°13.829 2°55.632 337.5 7.7 336 11.6
2010-08-06 05:07:32 51°13.839 2°55.625 337.5 7.9 336 11.6
2010-08-06 05:07:36 51°13.847 2°55.619 337.2 8.1 336 11.6
2010-08-06 05:07:41 51°13.858 2°55.611 336.9 8.3 336 11.6
2010-08-06 05:07:46 51°13.869 2°55.603 336.7 8.5 335 11
2010-08-06 05:07:51 51°13.88 2°55.595 336.8 8.7 336 10.7
2010-08-06 05:07:56 51°13.891 2°55.587 337.1 8.8 336 10.7
2010-08-06 05:08:00 51°13.9 2°55.581 336.9 8.9 335 11.3
2010-08-06 05:08:06 51°13.913 2°55.57 336.6 9.1 335 11.3
2010-08-06 05:08:11 51°13.925 2°55.562 336.9 9.1 336 11.3
2010-08-06 05:08:16 51°13.937 2°55.553 337 9.2 335 11.7
2010-08-06 05:08:20 51°13.946 2°55.546 336.9 9.4 335 11.6
2010-08-06 05:08:26 51°13.961 2°55.535 336.9 9.5 336 11.4
2010-08-06 05:08:31 51°13.973 2°55.527 337.2 9.6 336 11.5
2010-08-06 05:08:36 51°13.985 2°55.517 337.2 9.7 335 11.5
2010-08-06 05:08:40 51°13.995 2°55.51 336.7 9.8 335 11.5
2010-08-06 05:08:46 51°14.01 2°55.499 336.7 9.9 335 11.3
2010-08-06 05:08:51 51°14.022 2°55.49 336.8 9.9 335 11.2
2010-08-06 05:08:56 51°14.035 2°55.48 336.6 9.9 335 10.9
2010-08-06 05:09:01 51°14.047 2°55.471 336.9 10 335 11.2
2010-08-06 05:09:06 51°14.06 2°55.461 336.7 10 334 11.2
2010-08-06 05:09:11 51°14.072 2°55.452 336.1 10 334 11.1
2010-08-06 05:09:16 51°14.085 2°55.443 336.2 10.1 335 11.1
2010-08-06 05:09:21 51°14.098 2°55.433 336.4 10.1 334 11.2
2010-08-06 05:09:26 51°14.11 2°55.423 336.2 10.1 334 11.2
2010-08-06 05:09:31 51°14.123 2°55.413 335.8 10.1 334 11.4
2010-08-06 05:09:36 51°14.135 2°55.403 335.8 10.1 334 11.7
2010-08-06 05:09:41 51°14.148 2°55.393 335.5 10.1 333 -999
2010-08-06 05:09:46 51°14.16 2°55.383 335.2 10.1 333 11.3
2010-08-06 05:09:51 51°14.172 2°55.373 334.3 10.1 332 11.4
2010-08-06 05:09:56 51°14.185 2°55.362 334 10.2 333 11.8
2010-08-06 05:10:00 51°14.195 2°55.354 334.9 10.2 333 11.7
2010-08-06 05:10:06 51°14.21 2°55.341 334.7 10.2 332 11.7
2010-08-06 05:10:11 51°14.223 2°55.33 333.4 10.3 331 11.5
2010-08-06 05:10:16 51°14.235 2°55.319 332.5 10.3 331 11.3
2010-08-06 05:10:20 51°14.245 2°55.31 331.6 10.3 329 11.3
2010-08-06 05:10:26 51°14.26 2°55.296 331.2 10.4 330 11.3
2010-08-06 05:10:31 51°14.272 2°55.284 331.2 10.4 330 11.2
2010-08-06 05:10:36 51°14.285 2°55.273 330.8 10.4 329 11.2
2010-08-06 05:10:41 51°14.297 2°55.261 330.5 10.4 329 11.1
2010-08-06 05:10:46 51°14.31 2°55.249 330.5 10.5 330 11.1
2010-08-06 05:10:51 51°14.322 2°55.237 330.4 10.5 329 11.1
2010-08-06 05:10:56 51°14.335 2°55.225 329.2 10.6 327 10.6
2010-08-06 05:11:01 51°14.347 2°55.212 329.2 10.6 329 10.5
2010-08-06 05:11:05 51°14.357 2°55.203 329.6 10.6 328 10.7
2010-08-06 05:11:11 51°14.372 2°55.188 329.6 10.7 328 10.8
2010-08-06 05:11:16 51°14.385 2°55.174 328.6 10.8 326 10.5
2010-08-06 05:11:21 51°14.397 2°55.161 327.8 10.8 327 10.4
2010-08-06 05:11:26 51°14.41 2°55.148 327.7 10.8 326 11.3
2010-08-06 05:11:31 51°14.423 2°55.134 327.7 11 327 11.1
2010-08-06 05:11:36 51°14.436 2°55.121 327.6 11.1 326 10.8
2010-08-06 05:11:41 51°14.449 2°55.108 328.8 11.2 329 10.7
2010-08-06 05:11:46 51°14.462 2°55.095 330.1 11.2 329 11.2
2010-08-06 05:11:51 51°14.476 2°55.083 330.7 11.3 329 11.6
2010-08-06 05:11:56 51°14.489 2°55.069 330.7 11.4 328 11.5
2010-08-06 05:12:00 51°14.5 2°55.058 329.6 11.6 327 11.2
2010-08-06 05:12:06 51°14.516 2°55.041 329 11.7 326 11.5
2010-08-06 05:12:11 51°14.53 2°55.025 328.2 11.9 325 11.2
2010-08-06 05:12:16 51°14.543 2°55.009 327.1 12.1 323 11.9
2010-08-06 05:12:20 51°14.555 2°54.997 326.8 12.4 324 11.8
2010-08-06 05:12:26 51°14.571 2°54.977 326.8 12.5 324 11.8
2010-08-06 05:12:31 51°14.586 2°54.961 326.8 12.7 325 12.1
2010-08-06 05:12:36 51°14.601 2°54.945 328.4 12.8 326 12
2010-08-06 05:12:40 51°14.612 2°54.932 328.9 12.9 325 11.6
2010-08-06 05:12:46 51°14.63 2°54.913 328.7 13 325 11.6
2010-08-06 05:12:51 51°14.644 2°54.896 328.1 13 324 11.6
2010-08-06 05:12:56 51°14.659 2°54.879 327.4 13.1 324 11.9
2010-08-06 05:13:00 51°14.671 2°54.865 327.4 13.2 323 11.5
2010-08-06 05:13:06 51°14.689 2°54.844 327.2 13.2 324 11.7
2010-08-06 05:13:11 51°14.704 2°54.827 327.4 13.3 324 11.9
2010-08-06 05:13:16 51°14.719 2°54.81 327.7 13.3 325 11.4
2010-08-06 05:13:20 51°14.731 2°54.796 327.9 13.3 324 11.6
2010-08-06 05:13:26 51°14.749 2°54.776 328 13.4 324 11.6
2010-08-06 05:13:31 51°14.764 2°54.759 328.2 13.3 325 11.6
2010-08-06 05:13:36 51°14.779 2°54.741 328 13.4 324 11.3
2010-08-06 05:13:41 51°14.794 2°54.724 327.5 13.4 324 11.2
2010-08-06 05:13:46 51°14.809 2°54.706 327.4 13.4 324 11.3
2010-08-06 05:13:51 51°14.824 2°54.688 327.1 13.4 323 11.5
2010-08-06 05:13:56 51°14.839 2°54.671 326.7 13.4 323 11.2
2010-08-06 05:14:00 51°14.851 2°54.657 326.8 13.4 324 11.3
2010-08-06 05:14:06 51°14.869 2°54.635 326.7 13.5 324 11.6
2010-08-06 05:14:11 51°14.884 2°54.618 327 13.5 324 11.2
2010-08-06 05:14:16 51°14.899 2°54.6 327 13.4 324 11.2
2010-08-06 05:14:20 51°14.911 2°54.586 327 13.4 323 11.7
2010-08-06 05:14:26 51°14.928 2°54.565 326.8 13.4 323 10.6
2010-08-06 05:14:31 51°14.943 2°54.547 326.8 13.3 323 10.2
2010-08-06 05:14:36 51°14.958 2°54.53 326.8 13.3 323 10.1
2010-08-06 05:14:40 51°14.97 2°54.516 326.9 13.2 324 10.1
2010-08-06 05:14:46 51°14.988 2°54.495 327 13.2 324 10.5
2010-08-06 05:14:51 51°15.003 2°54.478 327.3 13.3 324 10.2
2010-08-06 05:14:56 51°15.017 2°54.461 327.2 13.3 324 10.1
2010-08-06 05:15:00 51°15.029 2°54.446 326.6 13.3 323 10.6
2010-08-06 05:15:06 51°15.047 2°54.425 326.4 13.3 323 10.3
2010-08-06 05:15:11 51°15.061 2°54.407 325.8 13.4 322 10.2
2010-08-06 05:15:16 51°15.076 2°54.389 325.7 13.2 323 10.2
2010-08-06 05:15:20 51°15.087 2°54.375 325.4 13.3 322 10.3
2010-08-06 05:15:26 51°15.105 2°54.353 325.2 13.3 322 10.2
2010-08-06 05:15:31 51°15.119 2°54.335 325 13.3 321 10.1
2010-08-06 05:15:36 51°15.134 2°54.317 324.9 13.3 322 10.3
2010-08-06 05:15:40 51°15.145 2°54.302 324.8 13.3 322 10.8
2010-08-06 05:15:46 51°15.163 2°54.28 324.8 13.3 322 10.7
2010-08-06 05:15:51 51°15.177 2°54.262 324.8 13.4 322 10.7
2010-08-06 05:15:56 51°15.192 2°54.244 325 13.4 322 10.4
2010-08-06 05:16:00 51°15.204 2°54.229 325.2 13.3 322 10.7
2010-08-06 05:16:06 51°15.222 2°54.207 325.2 13.4 322 10.7
2010-08-06 05:16:11 51°15.236 2°54.189 325.6 13.4 323 10.5
2010-08-06 05:16:16 51°15.251 2°54.171 325.6 13.4 322 10.7
2010-08-06 05:16:20 51°15.263 2°54.157 325.5 13.4 323 10.8
2010-08-06 05:16:26 51°15.28 2°54.135 325.6 13.4 323 10.9
2010-08-06 05:16:31 51°15.295 2°54.117 325.6 13.4 323 10.8
2010-08-06 05:16:36 51°15.31 2°54.099 325.8 13.4 322 10.9
2010-08-06 05:16:40 51°15.322 2°54.084 325.5 13.5 322 11
2010-08-06 05:16:46 51°15.339 2°54.063 325.4 13.4 322 10.8
2010-08-06 05:16:51 51°15.354 2°54.044 325.2 13.4 322 11.2
2010-08-06 05:16:56 51°15.369 2°54.026 325.2 13.5 322 10.9
2010-08-06 05:17:00 51°15.381 2°54.011 325.1 13.4 322 10.6
2010-08-06 05:17:06 51°15.398 2°53.99 325.2 13.3 322 11.1
2010-08-06 05:17:11 51°15.413 2°53.971 325.2 13.3 322 11.4
2010-08-06 05:17:16 51°15.427 2°53.953 325.5 13.4 322 11.2
2010-08-06 05:17:20 51°15.439 2°53.939 325.4 13.4 322 11.1
2010-08-06 05:17:26 51°15.456 2°53.917 325.6 13.4 322 11.2
2010-08-06 05:17:31 51°15.471 2°53.899 325.6 13.5 322 11.4
2010-08-06 05:17:36 51°15.486 2°53.881 325.4 13.4 322 10.9
2010-08-06 05:17:41 51°15.5 2°53.863 325.3 13.3 322 11.6
2010-08-06 05:17:46 51°15.515 2°53.845 325.3 13.4 322 11.4
2010-08-06 05:17:51 51°15.53 2°53.826 325.2 13.4 322 11.2
2010-08-06 05:17:56 51°15.544 2°53.808 325.2 13.4 322 11.2
2010-08-06 05:18:00 51°15.556 2°53.794 325.1 13.4 322 11.7
2010-08-06 05:18:06 51°15.574 2°53.772 325.1 13.4 322 11.5
2010-08-06 05:18:11 51°15.588 2°53.753 325.1 13.4 322 11.6
2010-08-06 05:18:16 51°15.603 2°53.735 325.1 13.5 322 12
2010-08-06 05:18:20 51°15.615 2°53.72 325.2 13.5 322 11.8
2010-08-06 05:18:26 51°15.632 2°53.699 325.3 13.5 322 11.3
2010-08-06 05:18:31 51°15.647 2°53.68 325.5 13.4 322 11.6
2010-08-06 05:18:36 51°15.662 2°53.662 325.2 13.4 321 11.8
2010-08-06 05:18:40 51°15.674 2°53.648 325 13.4 323 12
2010-08-06 05:18:45 51°15.688 2°53.629 325.2 13.4 322 11.7
2010-08-06 05:18:51 51°15.707 2°53.609 326.1 13.4 325 12
2010-08-06 05:18:56 51°15.722 2°53.591 326.9 13.4 324 11.7
2010-08-06 05:19:00 51°15.734 2°53.579 328.3 13.4 328 12.1
2010-08-06 05:19:05 51°15.75 2°53.562 329.2 13.4 326 11.9
2010-08-06 05:19:10 51°15.766 2°53.547 330.6 13.4 330 11.8
2010-08-06 05:19:15 51°15.781 2°53.532 332.5 13.3 330 12.3
2010-08-06 05:19:20 51°15.798 2°53.519 334 13.3 332 12
2010-08-06 05:19:25 51°15.814 2°53.505 335.2 13.3 333 11.7
2010-08-06 05:19:30 51°15.831 2°53.492 336.1 13.2 334 11.8
2010-08-06 05:19:35 51°15.847 2°53.48 336.9 13.2 335 12.1
2010-08-06 05:19:40 51°15.864 2°53.467 337.7 13.3 335 12
2010-08-06 05:19:45 51°15.88 2°53.455 338.4 13.2 336 12
2010-08-06 05:19:50 51°15.897 2°53.443 338.9 13.3 336 11.9
2010-08-06 05:19:55 51°15.914 2°53.431 339.1 13.1 336 11.6
2010-08-06 05:20:00 51°15.931 2°53.42 339.3 13.1 336 12.2
2010-08-06 05:20:05 51°15.947 2°53.408 339.8 13.2 336 12.2
2010-08-06 05:20:10 51°15.964 2°53.396 339.6 13.2 337 11.9
2010-08-06 05:20:15 51°15.981 2°53.384 339.5 13.2 335 12
2010-08-06 05:20:20 51°15.998 2°53.373 339.2 13.2 336 12.4
2010-08-06 05:20:25 51°16.014 2°53.361 339.5 13.1 336 11.7
2010-08-06 05:20:30 51°16.031 2°53.349 339.3 13.1 336 11.9
2010-08-06 05:20:35 51°16.048 2°53.337 339.3 13.2 335 12
2010-08-06 05:20:40 51°16.064 2°53.325 339.2 13.2 336 12.1
2010-08-06 05:20:45 51°16.081 2°53.313 339.1 13.3 335 12.4
2010-08-06 05:20:50 51°16.098 2°53.301 338.9 13.2 336 12.2
2010-08-06 05:20:55 51°16.115 2°53.289 338.9 13.4 335 12.4
2010-08-06 05:21:00 51°16.131 2°53.276 338.7 13.4 336 12.1
2010-08-06 05:21:05 51°16.148 2°53.264 338.7 13.2 335 11.9
2010-08-06 05:21:10 51°16.165 2°53.252 339 13.2 336 12.1
2010-08-06 05:21:15 51°16.181 2°53.24 338.8 13.3 335 12.2
2010-08-06 05:21:20 51°16.198 2°53.228 338.9 13.3 335 12.6
2010-08-06 05:21:25 51°16.215 2°53.215 339 13.3 335 12
2010-08-06 05:21:29 51°16.228 2°53.206 338.9 13.3 336 12.2
2010-08-06 05:21:35 51°16.248 2°53.191 339 13.2 335 12.1
2010-08-06 05:21:40 51°16.265 2°53.179 339 13.1 336 12.1
2010-08-06 05:21:45 51°16.282 2°53.167 339.2 13.2 335 12.7
2010-08-06 05:21:50 51°16.299 2°53.155 339.1 13.2 335 12.1
2010-08-06 05:21:56 51°16.318 2°53.14 338.9 13.1 335 11.9
2010-08-06 05:22:00 51°16.332 2°53.13 338.7 13.2 335 12.4
2010-08-06 05:22:05 51°16.349 2°53.118 338.9 13.2 335 12.3
2010-08-06 05:22:10 51°16.365 2°53.106 338.8 13.2 335 12.5
2010-08-06 05:22:15 51°16.382 2°53.094 338.7 13.2 335 12.1
2010-08-06 05:22:20 51°16.399 2°53.081 338.7 13.3 335 12.1
2010-08-06 05:22:25 51°16.416 2°53.069 338.7 13.3 335 12.2
2010-08-06 05:22:30 51°16.432 2°53.057 338.8 13.3 335 12.2
2010-08-06 05:22:35 51°16.449 2°53.044 338.7 13.3 335 12.2
2010-08-06 05:22:40 51°16.466 2°53.032 338.5 13.3 335 12.2
2010-08-06 05:22:45 51°16.483 2°53.02 338.8 13.4 336 12.4
2010-08-06 05:22:50 51°16.5 2°53.007 338.9 13.3 335 12.1
2010-08-06 05:22:55 51°16.516 2°52.995 338.8 13.3 336 11.9
2010-08-06 05:23:00 51°16.533 2°52.983 338.9 13.3 335 12.2
2010-08-06 05:23:05 51°16.55 2°52.971 338.8 13.3 336 11.8
2010-08-06 05:23:10 51°16.567 2°52.959 339.1 13.3 336 12
2010-08-06 05:23:15 51°16.584 2°52.947 339.2 13.3 337 11.9
2010-08-06 05:23:20 51°16.6 2°52.935 339.2 13.2 336 11.7
2010-08-06 05:23:25 51°16.617 2°52.923 339 13.2 336 11.9
2010-08-06 05:23:30 51°16.634 2°52.912 339 13.2 336 11.7
2010-08-06 05:23:35 51°16.65 2°52.9 339 13.2 336 11.8
2010-08-06 05:23:40 51°16.667 2°52.888 338.8 13.2 335 11.5
2010-08-06 05:23:45 51°16.684 2°52.876 338.5 13.2 336 11.1
2010-08-06 05:23:50 51°16.7 2°52.864 338.7 13 336 11.1
2010-08-06 05:23:55 51°16.716 2°52.852 339 13.1 336 11.1
2010-08-06 05:24:00 51°16.733 2°52.84 338.9 13.1 336 10.9
2010-08-06 05:24:05 51°16.749 2°52.828 338.7 13.1 335 10.8
2010-08-06 05:24:10 51°16.766 2°52.816 338.5 13 335 10.2
2010-08-06 05:24:15 51°16.782 2°52.804 338.2 12.9 335 10
2010-08-06 05:24:20 51°16.799 2°52.792 338.3 12.9 335 10
2010-08-06 05:24:25 51°16.815 2°52.78 338.3 12.8 335 10.2
2010-08-06 05:24:30 51°16.831 2°52.768 338.3 12.9 335 10.1
2010-08-06 05:24:35 51°16.847 2°52.756 338.2 13 334 10
2010-08-06 05:24:40 51°16.863 2°52.743 337.9 13 334 9.7
2010-08-06 05:24:45 51°16.879 2°52.731 338 12.8 334 9.6
2010-08-06 05:24:50 51°16.895 2°52.719 337.7 12.9 336 9.9
2010-08-06 05:24:55 51°16.911 2°52.707 338.1 12.9 335 10.2
2010-08-06 05:25:00 51°16.928 2°52.695 338.7 12.9 338 10
2010-08-06 05:25:05 51°16.945 2°52.686 341.3 12.9 339 10.2
2010-08-06 05:25:10 51°16.962 2°52.677 343.5 12.9 343 10.1
2010-08-06 05:25:15 51°16.979 2°52.668 345.4 12.9 342 10.1
2010-08-06 05:25:20 51°16.996 2°52.661 347.4 12.9 347 10.4
2010-08-06 05:25:24 51°17.01 2°52.655 348.9 12.9 346 10.5
2010-08-06 05:25:30 51°17.031 2°52.649 351.2 12.9 351 10.6
2010-08-06 05:25:35 51°17.049 2°52.644 352.7 12.9 350 10.3
2010-08-06 05:25:40 51°17.067 2°52.641 355 12.8 355 10
2010-08-06 05:25:45 51°17.084 2°52.638 356 12.8 353 9.9
2010-08-06 05:25:50 51°17.102 2°52.636 357.7 12.7 357 9.9
2010-08-06 05:25:55 51°17.119 2°52.634 359 12.8 356 10.1
2010-08-06 05:26:00 51°17.137 2°52.633 359.7 12.7 358 9.9
2010-08-06 05:26:05 51°17.155 2°52.632 0.5 12.6 357 10
2010-08-06 05:26:10 51°17.172 2°52.631 0.8 12.8 359 10.6
2010-08-06 05:26:15 51°17.19 2°52.63 1.3 12.8 358 10
2010-08-06 05:26:20 51°17.208 2°52.63 1.5 12.8 359 9.9
2010-08-06 05:26:25 51°17.225 2°52.629 1.8 12.7 359 10
2010-08-06 05:26:30 51°17.243 2°52.629 2.2 12.6 -999 10.6
2010-08-06 05:26:35 51°17.261 2°52.628 2 12.8 359 10.6
2010-08-06 05:26:40 51°17.278 2°52.628 2 12.9 359 10.1
2010-08-06 05:26:45 51°17.296 2°52.627 1.6 12.9 358 10.1
2010-08-06 05:26:50 51°17.314 2°52.626 1.1 12.8 358 10.2
2010-08-06 05:26:55 51°17.332 2°52.625 1.2 12.8 358 10.6
2010-08-06 05:27:00 51°17.349 2°52.624 1.3 12.8 358 10.3
2010-08-06 05:27:05 51°17.367 2°52.623 1 12.9 357 10.4
2010-08-06 05:27:10 51°17.385 2°52.622 0.8 12.9 358 10.5
2010-08-06 05:27:15 51°17.403 2°52.62 0.8 12.9 357 10.4
2010-08-06 05:27:20 51°17.421 2°52.619 0.7 12.9 358 10.7
2010-08-06 05:27:25 51°17.439 2°52.617 0.6 12.9 357 10.9
2010-08-06 05:27:30 51°17.457 2°52.617 0.8 12.9 357 10.8
2010-08-06 05:27:35 51°17.475 2°52.615 0.4 12.9 358 10.7
2010-08-06 05:27:40 51°17.493 2°52.614 0.6 12.9 357 10.8
2010-08-06 05:27:45 51°17.511 2°52.613 0.4 12.9 358 10.8
2010-08-06 05:27:50 51°17.528 2°52.611 0.6 12.9 357 10.8
2010-08-06 05:27:55 51°17.546 2°52.61 0.5 13 358 11
2010-08-06 05:28:00 51°17.564 2°52.608 0.4 12.9 357 10.5
2010-08-06 05:28:05 51°17.582 2°52.607 0.8 12.9 357 11
2010-08-06 05:28:10 51°17.6 2°52.605 0.6 12.9 357 10.9
2010-08-06 05:28:15 51°17.618 2°52.604 0.2 12.9 357 10.7
2010-08-06 05:28:20 51°17.636 2°52.602 0.1 12.9 357 10.9
2010-08-06 05:28:25 51°17.654 2°52.6 0.1 12.9 357 10.7
2010-08-06 05:28:30 51°17.672 2°52.599 0.1 12.9 356 10.6
2010-08-06 05:28:35 51°17.689 2°52.598 0.1 13 358 11
2010-08-06 05:28:40 51°17.707 2°52.595 0.3 13 356 10.4
2010-08-06 05:28:45 51°17.725 2°52.595 0.1 12.7 358 10.5
2010-08-06 05:29:06 51°17.8 2°52.589 0.6 12.9 357 10.7
2010-08-06 05:29:44 51°17.936 2°52.576 359.6 13 355 10.9
2010-08-06 05:29:49 51°17.954 2°52.575 359.6 12.9 357 10.6
2010-08-06 05:31:15 51°18.264 2°52.543 359.5 13.1 357 11.2
2010-08-06 05:31:20 51°18.282 2°52.541 359.9 13.2 356 11.7
2010-08-06 05:31:25 51°18.301 2°52.539 359.6 13.2 356 11.2
2010-08-06 05:31:30 51°18.319 2°52.537 359.4 13 356 11.2
2010-08-06 05:31:35 51°18.337 2°52.535 359.4 13 356 11.3
2010-08-06 05:31:40 51°18.355 2°52.534 359.8 13 357 11.7
2010-08-06 05:31:45 51°18.373 2°52.531 359.4 13.1 356 11.9
2010-08-06 05:31:50 51°18.391 2°52.53 0.1 13.1 356 11.4
2010-08-06 05:31:55 51°18.409 2°52.527 359.4 13 356 11.3
2010-08-06 05:32:00 51°18.427 2°52.526 359.7 13 357 11.7
2010-08-06 05:32:05 51°18.446 2°52.524 0.1 13.2 356 12
2010-08-06 05:32:10 51°18.464 2°52.522 0.1 13.1 357 11.4
2010-08-06 05:32:15 51°18.482 2°52.52 0.1 13.1 356 11.9
2010-08-06 05:32:20 51°18.5 2°52.519 0.1 13.1 358 12
2010-08-06 05:32:25 51°18.518 2°52.516 359.3 12.9 356 11.8
2010-08-06 05:32:30 51°18.536 2°52.516 0.1 13 358 12.1
2010-08-06 05:32:35 51°18.553 2°52.512 359.9 13 354 11.9
2010-08-06 05:32:40 51°18.572 2°52.511 359.3 13 358 11.9
2010-08-06 05:32:45 51°18.589 2°52.509 0.1 13 355 12.3
2010-08-06 05:32:50 51°18.608 2°52.507 359.6 13 357 12
2010-08-06 05:32:55 51°18.626 2°52.505 359.8 13 355 12
2010-08-06 05:33:00 51°18.644 2°52.503 359.3 13 356 12.2
2010-08-06 05:33:05 51°18.662 2°52.501 359.4 13 356 12.4
2010-08-06 05:33:10 51°18.68 2°52.499 359.4 13 356 11.9
2010-08-06 05:33:15 51°18.698 2°52.497 359.4 13 356 12.4
2010-08-06 05:33:20 51°18.716 2°52.495 359.5 13 356 12.1
2010-08-06 05:33:25 51°18.734 2°52.493 359.1 13 356 12.4
2010-08-06 05:33:30 51°18.752 2°52.491 359.6 13 357 12.7
2010-08-06 05:33:35 51°18.77 2°52.488 359.2 13 355 12.5
2010-08-06 05:33:40 51°18.788 2°52.488 359.8 13 358 12.9
2010-08-06 05:33:45 51°18.806 2°52.484 359.1 13 354 12.8
2010-08-06 05:33:50 51°18.824 2°52.483 359.3 13 357 12.9
2010-08-06 05:33:55 51°18.842 2°52.48 359.2 13 355 13
2010-08-06 05:34:00 51°18.86 2°52.479 359.1 13 357 12.8
2010-08-06 05:34:05 51°18.878 2°52.476 359.2 13 355 12.7
2010-08-06 05:34:10 51°18.896 2°52.474 359.2 12.9 356 12.6
2010-08-06 05:34:15 51°18.914 2°52.472 359.1 12.9 355 13
2010-08-06 05:34:20 51°18.932 2°52.47 359.1 13 356 13.2
2010-08-06 05:34:25 51°18.95 2°52.468 359.4 13 356 13.1
2010-08-06 05:34:30 51°18.968 2°52.466 359.4 12.9 357 13.4
2010-08-06 05:34:35 51°18.985 2°52.464 359.7 12.9 355 13.9
2010-08-06 05:34:40 51°19.003 2°52.462 359.4 12.9 356 13.7
2010-08-06 05:34:45 51°19.021 2°52.459 359.7 13 355 13.5
2010-08-06 05:34:50 51°19.039 2°52.458 359.4 13 357 13.8
2010-08-06 05:34:55 51°19.057 2°52.455 359.4 13 355 13.7
2010-08-06 05:35:00 51°19.075 2°52.454 359.6 13 357 14
2010-08-06 05:35:05 51°19.093 2°52.452 359.7 13 356 13.8
2010-08-06 05:35:10 51°19.111 2°52.45 359.3 13 356 14
2010-08-06 05:35:16 51°19.133 2°52.447 359.3 13.1 356 14.2
2010-08-06 05:35:20 51°19.147 2°52.446 359.1 13.1 356 14.3
2010-08-06 05:35:25 51°19.165 2°52.444 359.3 13 357 14.4
2010-08-06 05:35:30 51°19.183 2°52.442 359.6 13 355 14.7
2010-08-06 05:35:35 51°19.202 2°52.44 359.1 13.1 357 14.6
2010-08-06 05:35:40 51°19.22 2°52.438 359.2 13.1 356 14.4
2010-08-06 05:35:45 51°19.238 2°52.436 358.7 13.1 356 14.5
2010-08-06 05:35:50 51°19.256 2°52.434 359.4 13.1 356 14.9
2010-08-06 05:35:55 51°19.274 2°52.432 359.3 13 357 15
2010-08-06 05:36:00 51°19.292 2°52.431 359.6 13.1 357 15
2010-08-06 05:36:05 51°19.31 2°52.428 359.6 13.1 356 15.4
2010-08-06 05:36:10 51°19.328 2°52.427 359.2 13.1 356 15.6
2010-08-06 05:36:15 51°19.346 2°52.425 359.1 13 356 15.1
2010-08-06 05:36:20 51°19.364 2°52.422 358.9 13.1 356 14.9
2010-08-06 05:36:25 51°19.382 2°52.421 359.2 12.9 356 15.5
2010-08-06 05:36:30 51°19.4 2°52.419 359.2 12.9 357 16.2
2010-08-06 05:36:35 51°19.418 2°52.417 359.4 12.9 356 15.7
2010-08-06 05:36:40 51°19.436 2°52.415 359 12.9 356 15.3
2010-08-06 05:36:44 51°19.45 2°52.414 359.1 12.9 356 15.6
2010-08-06 05:36:50 51°19.472 2°52.411 359 12.9 356 15.6
2010-08-06 05:36:56 51°19.493 2°52.409 359.1 13 356 15.9
2010-08-06 05:37:00 51°19.508 2°52.407 358.9 13.1 355 16
2010-08-06 05:37:05 51°19.526 2°52.405 358.9 13.1 356 16.2
2010-08-06 05:37:10 51°19.544 2°52.403 358.6 13.1 355 15.9
2010-08-06 05:37:15 51°19.562 2°52.401 359.1 13.1 357 15.9
2010-08-06 05:37:20 51°19.58 2°52.399 359 13 355 16.2
2010-08-06 05:37:25 51°19.598 2°52.398 359.1 13.1 358 15.9
2010-08-06 05:37:30 51°19.616 2°52.395 359.1 12.9 355 15.7
2010-08-06 05:37:35 51°19.634 2°52.394 359.1 12.9 358 16.4
2010-08-06 05:37:40 51°19.652 2°52.392 359.2 12.9 355 16.7
2010-08-06 05:37:45 51°19.67 2°52.39 358.7 13.1 357 16.6
2010-08-06 05:37:50 51°19.688 2°52.388 358.9 12.9 356 16.1
2010-08-06 05:37:55 51°19.706 2°52.386 358.9 12.8 356 15.7
2010-08-06 05:38:00 51°19.723 2°52.384 358.6 12.8 356 16.4
2010-08-06 05:38:05 51°19.741 2°52.383 359.5 13 357 16
2010-08-06 05:38:10 51°19.759 2°52.38 359 12.9 355 16.3
2010-08-06 05:38:15 51°19.777 2°52.378 358.6 13 357 16.4
2010-08-06 05:38:20 51°19.795 2°52.375 358.8 13.1 354 16.6
2010-08-06 05:38:25 51°19.813 2°52.374 359.3 13 357 16.2
2010-08-06 05:38:30 51°19.832 2°52.372 359.1 13.2 355 16.5
2010-08-06 05:38:35 51°19.85 2°52.37 359.1 13.1 357 16.7
2010-08-06 05:38:40 51°19.868 2°52.368 359 13.1 356 16.4
2010-08-06 05:38:45 51°19.886 2°52.366 359.3 13.1 357 16.3
2010-08-06 05:38:50 51°19.904 2°52.364 359.1 13 356 16.5
2010-08-06 05:38:55 51°19.922 2°52.363 359.4 13.1 357 16.7
2010-08-06 05:39:00 51°19.94 2°52.361 359.6 13.1 357 16.8
2010-08-06 05:39:05 51°19.959 2°52.359 359.4 13.1 357 16.9
2010-08-06 05:39:10 51°19.977 2°52.358 359.4 13.2 356 16.4
2010-08-06 05:39:15 51°19.995 2°52.356 359.3 13 357 16.2
2010-08-06 05:39:20 51°20.013 2°52.355 359.1 12.9 357 16.8
2010-08-06 05:39:25 51°20.031 2°52.353 359.5 13 357 16.9
2010-08-06 05:39:30 51°20.049 2°52.351 358.9 13 356 16.8
2010-08-06 05:39:35 51°20.067 2°52.35 359.4 13.1 357 16.9
2010-08-06 05:39:40 51°20.085 2°52.347 359.4 13.2 356 16.8
2010-08-06 05:39:45 51°20.103 2°52.346 359.5 13.1 356 16.1
2010-08-06 05:39:50 51°20.121 2°52.344 359.4 13 356 16.3
2010-08-06 05:39:55 51°20.139 2°52.341 358.9 13 356 16.8
2010-08-06 05:40:00 51°20.157 2°52.339 359.3 12.9 356 16.9
2010-08-06 05:40:05 51°20.175 2°52.337 359.3 13.1 356 16.6
2010-08-06 05:40:10 51°20.193 2°52.335 359.2 13.1 356 16.5
2010-08-06 05:40:15 51°20.211 2°52.334 0.5 13.1 -999 16.6
2010-08-06 05:40:20 51°20.229 2°52.333 1.4 13.1 357 16.7
2010-08-06 05:40:25 51°20.248 2°52.333 2.3 13.1 -999 16.6
2010-08-06 05:40:30 51°20.266 2°52.333 3 13.1 359 16.5
2010-08-06 05:40:35 51°20.284 2°52.333 3.4 12.9 1 16
2010-08-06 05:40:40 51°20.302 2°52.334 4.1 13 1 16.8
2010-08-06 05:40:45 51°20.32 2°52.335 4.4 13 2 16.5
2010-08-06 05:40:50 51°20.338 2°52.336 4.7 13 1 16.4
2010-08-06 05:40:55 51°20.356 2°52.337 4.8 13 2 16.3
2010-08-06 05:41:00 51°20.374 2°52.337 5.2 13.1 1 16.2
2010-08-06 05:41:05 51°20.392 2°52.338 4.5 13.1 1 15.8
2010-08-06 05:41:10 51°20.41 2°52.339 4.8 13.1 2 15.9
2010-08-06 05:41:15 51°20.428 2°52.339 4.6 12.9 1 15.6
2010-08-06 05:41:20 51°20.446 2°52.341 4.7 12.9 2 15.8
2010-08-06 05:41:25 51°20.464 2°52.341 4.3 13 -999 16
2010-08-06 05:41:30 51°20.482 2°52.342 4.4 13 2 15.5
2010-08-06 05:41:35 51°20.5 2°52.342 4.2 12.9 1 15.4
2010-08-06 05:41:40 51°20.517 2°52.343 4.6 12.9 2 15.1
2010-08-06 05:41:45 51°20.536 2°52.343 4.5 13 -999 14.9
2010-08-06 05:41:50 51°20.554 2°52.344 4.2 12.9 2 14.7
2010-08-06 05:41:55 51°20.571 2°52.345 4.3 12.8 1 14.6
2010-08-06 05:42:00 51°20.589 2°52.346 5 12.8 3 14.8
2010-08-06 05:42:04 51°20.604 2°52.346 4.4 13 359 15.2
2010-08-06 05:42:10 51°20.625 2°52.347 4.5 12.8 3 14.4
2010-08-06 05:42:15 51°20.643 2°52.348 4.6 12.8 1 14.3
2010-08-06 05:42:20 51°20.661 2°52.349 4.7 12.9 2 15
2010-08-06 05:42:25 51°20.679 2°52.349 4.7 12.9 -999 14.7
2010-08-06 05:42:30 51°20.697 2°52.35 4.3 12.8 2 14.6
2010-08-06 05:42:35 51°20.714 2°52.351 4.5 12.9 2 14.9
2010-08-06 05:42:40 51°20.732 2°52.351 4.6 12.9 1 15.3
2010-08-06 05:42:45 51°20.75 2°52.352 4.5 12.8 2 14.5
2010-08-06 05:42:50 51°20.768 2°52.353 4.6 12.9 2 15.1
2010-08-06 05:42:55 51°20.786 2°52.354 4.4 12.9 1 14.9
2010-08-06 05:43:00 51°20.804 2°52.354 4.6 13 2 14.9
2010-08-06 05:43:04 51°20.818 2°52.355 4.7 13 1 14.6
2010-08-06 05:43:10 51°20.84 2°52.356 4.5 13 2 15
2010-08-06 05:43:15 51°20.858 2°52.357 4.4 12.9 2 15
2010-08-06 05:43:20 51°20.876 2°52.357 4.5 13 2 15.1
2010-08-06 05:43:25 51°20.894 2°52.358 4.7 13.1 2 15.3
2010-08-06 05:43:30 51°20.912 2°52.359 4.7 13.1 1 15.2
2010-08-06 05:43:35 51°20.93 2°52.359 4.6 12.9 2 15
2010-08-06 05:43:40 51°20.948 2°52.36 4.5 12.9 1 15
2010-08-06 05:43:45 51°20.966 2°52.361 4.5 12.9 2 15.8
2010-08-06 05:43:49 51°20.981 2°52.362 4.6 13 1 15.8
2010-08-06 05:43:55 51°21.002 2°52.363 4.5 12.9 2 15.7
2010-08-06 05:44:00 51°21.02 2°52.364 4.7 12.8 2 16.4
2010-08-06 05:44:05 51°21.038 2°52.365 5 13 2 16.4
2010-08-06 05:44:10 51°21.056 2°52.366 4.8 13.1 1 16.3
2010-08-06 05:44:16 51°21.078 2°52.366 4.3 13 1 16.8
2010-08-06 05:44:20 51°21.092 2°52.367 4.2 13 2 16.7
2010-08-06 05:44:25 51°21.111 2°52.367 4 13.2 1 17
2010-08-06 05:44:30 51°21.129 2°52.368 3.8 13.1 1 17
2010-08-06 05:44:35 51°21.147 2°52.369 3.9 13.1 2 17.5
2010-08-06 05:44:40 51°21.165 2°52.369 3.7 13.1 1 17.1
2010-08-06 05:44:45 51°21.183 2°52.37 4.4 13.1 1 17.3
2010-08-06 05:44:50 51°21.201 2°52.37 4.2 13 1 17.6
2010-08-06 05:44:55 51°21.219 2°52.371 4.2 13.1 1 18.1
2010-08-06 05:45:00 51°21.237 2°52.371 3.9 13 1 17.8
2010-08-06 05:45:05 51°21.255 2°52.372 4.2 13 1 17.6
2010-08-06 05:45:10 51°21.273 2°52.372 4.2 13 1 17.7
2010-08-06 05:45:15 51°21.291 2°52.373 4.2 13 2 17.7
2010-08-06 05:45:20 51°21.309 2°52.374 4.4 13 1 17.9
2010-08-06 05:45:25 51°21.328 2°52.374 4.4 13 2 18
2010-08-06 05:45:30 51°21.346 2°52.375 4.4 13.1 1 18.7
2010-08-06 05:45:35 51°21.364 2°52.375 4.1 13 1 18.6
2010-08-06 05:45:40 51°21.382 2°52.376 4.3 13 1 18.3
2010-08-06 05:45:45 51°21.4 2°52.376 4.2 13 1 18.4
2010-08-06 05:45:50 51°21.418 2°52.377 4.3 12.9 1 18.8
2010-08-06 05:45:55 51°21.436 2°52.377 4.4 13 1 19.3
2010-08-06 05:46:00 51°21.454 2°52.377 4.4 13 1 19.4
2010-08-06 05:46:05 51°21.472 2°52.378 4.2 13.1 1 19.3
2010-08-06 05:46:10 51°21.49 2°52.378 4 12.9 1 19.3
2010-08-06 05:46:16 51°21.511 2°52.379 3.9 12.9 1 19.8
2010-08-06 05:46:20 51°21.526 2°52.379 4.2 12.9 -999 20
2010-08-06 05:46:25 51°21.544 2°52.379 3.8 13 1 20.4
2010-08-06 05:46:30 51°21.562 2°52.38 4.3 13 1 20.1
2010-08-06 05:46:35 51°21.58 2°52.38 4.4 12.9 1 20.2
2010-08-06 05:46:40 51°21.598 2°52.38 4.3 12.9 1 21.1
2010-08-06 05:46:45 51°21.616 2°52.381 4.2 12.9 1 21.1
2010-08-06 05:46:50 51°21.634 2°52.381 4 13 1 21.4
2010-08-06 05:46:55 51°21.652 2°52.382 4 12.9 1 21.1
2010-08-06 05:47:00 51°21.67 2°52.382 4.2 13 1 21.6
2010-08-06 05:47:05 51°21.688 2°52.384 5.2 13.1 4 22.1
2010-08-06 05:47:10 51°21.706 2°52.386 6.6 13 4 21.8
2010-08-06 05:47:15 51°21.724 2°52.388 7.2 12.9 5 21.9
2010-08-06 05:47:20 51°21.741 2°52.391 8.3 12.9 6 22.6
2010-08-06 05:47:25 51°21.759 2°52.394 8.8 13 6 22.9
2010-08-06 05:47:30 51°21.777 2°52.398 9.8 13 7 22.8
2010-08-06 05:47:35 51°21.795 2°52.4 10 13.1 6 23
2010-08-06 05:47:40 51°21.813 2°52.404 10.2 13.1 8 23.3
2010-08-06 05:47:45 51°21.831 2°52.408 10.4 13.1 7 23.2
2010-08-06 05:47:50 51°21.849 2°52.412 11 13 7 23.4
2010-08-06 05:47:55 51°21.867 2°52.415 10.7 13.1 8 23.9
2010-08-06 05:48:00 51°21.885 2°52.419 11.1 13.2 8 23.6
2010-08-06 05:48:05 51°21.903 2°52.423 10.5 13.1 8 23.8
2010-08-06 05:48:10 51°21.921 2°52.427 11.3 13 7 23.9
2010-08-06 05:48:15 51°21.939 2°52.431 11 13 9 24.2
2010-08-06 05:48:20 51°21.957 2°52.434 11 13 7 24.1
2010-08-06 05:48:25 51°21.975 2°52.439 11.4 13 8 24.9
2010-08-06 05:48:30 51°21.993 2°52.442 10.9 13.1 7 24.7
2010-08-06 05:48:35 51°22.011 2°52.447 11.2 13 7 24.2
2010-08-06 05:48:40 51°22.029 2°52.451 10.8 13 8 24.8
2010-08-06 05:48:45 51°22.047 2°52.454 10.7 13 7 24.7
2010-08-06 05:48:50 51°22.065 2°52.458 10.9 13 8 24.3
2010-08-06 05:48:55 51°22.083 2°52.462 10.8 13.1 7 24.7
2010-08-06 05:49:00 51°22.101 2°52.466 10.8 13.1 8 24.5
2010-08-06 05:49:05 51°22.119 2°52.469 10.8 13.1 6 24.4
2010-08-06 05:49:10 51°22.137 2°52.473 10.5 13.1 8 24
2010-08-06 05:49:15 51°22.155 2°52.476 11 13.1 7 24.2
2010-08-06 05:49:20 51°22.173 2°52.481 11 13.1 8 23.9
2010-08-06 05:49:25 51°22.191 2°52.484 11 13.1 7 24.6
2010-08-06 05:49:30 51°22.209 2°52.488 10.9 13.1 7 24.4
2010-08-06 05:49:36 51°22.231 2°52.492 10.6 13.1 6 24.2
2010-08-06 05:49:40 51°22.245 2°52.496 10.9 13.1 8 24.2
2010-08-06 05:49:45 51°22.263 2°52.498 10.6 13.1 6 24
2010-08-06 05:49:50 51°22.281 2°52.503 10.8 13.1 8 24.1
2010-08-06 05:49:55 51°22.299 2°52.505 10.6 13.1 6 24.2
2010-08-06 05:50:00 51°22.317 2°52.509 10.6 13.1 8 24.1
2010-08-06 05:50:05 51°22.335 2°52.513 10.5 13.2 6 24.2
2010-08-06 05:50:10 51°22.353 2°52.517 10.4 13.2 8 23.7
2010-08-06 05:50:15 51°22.372 2°52.52 10.9 13.1 7 23.5
2010-08-06 05:50:20 51°22.39 2°52.523 10.7 13.2 7 23.6
2010-08-06 05:50:25 51°22.408 2°52.527 10.6 13.2 7 23.6
2010-08-06 05:50:30 51°22.426 2°52.53 10.2 13.2 7 23.3
2010-08-06 05:50:35 51°22.444 2°52.534 10.7 13.3 5 23.4
2010-08-06 05:50:40 51°22.463 2°52.538 10.3 13.3 8 23.2
2010-08-06 05:50:45 51°22.481 2°52.541 10.6 13.3 5 23.5
2010-08-06 05:50:50 51°22.499 2°52.545 10.2 13.3 10 23.3
2010-08-06 05:50:55 51°22.518 2°52.548 10.6 13.3 3 23.3
2010-08-06 05:51:00 51°22.536 2°52.552 10.2 13.2 10 23.3
2010-08-06 05:51:05 51°22.554 2°52.554 10.9 13.3 2 23.4
2010-08-06 05:51:10 51°22.572 2°52.559 10.1 13.2 12 23.2
2010-08-06 05:51:15 51°22.59 2°52.562 10.8 13.3 2 23.3
2010-08-06 05:51:20 51°22.609 2°52.566 10.5 13.3 10 22.9
2010-08-06 05:51:25 51°22.627 2°52.568 10.5 13.2 1 22.6
2010-08-06 05:51:30 51°22.645 2°52.573 9.9 13 10 22.7
2010-08-06 05:51:36 51°22.667 2°52.575 9.9 13.1 3 23.5
2010-08-06 05:51:40 51°22.681 2°52.579 10.2 13.1 8 23.1
2010-08-06 05:51:45 51°22.699 2°52.581 10 13.1 5 22.6
2010-08-06 05:51:50 51°22.717 2°52.585 10 13.1 7 22.5
2010-08-06 05:51:55 51°22.735 2°52.587 10 13.2 6 23.5
2010-08-06 05:52:00 51°22.753 2°52.592 10.4 13.2 8 23.3
2010-08-06 05:52:05 51°22.771 2°52.594 10.2 13.1 5 23.7
2010-08-06 05:52:10 51°22.789 2°52.598 10.4 13.2 7 23.9
2010-08-06 05:52:15 51°22.808 2°52.601 10.2 13.1 5 23.7
2010-08-06 05:52:20 51°22.826 2°52.605 10 13.2 7 23.7
2010-08-06 05:52:24 51°22.84 2°52.607 10.1 13.2 6 24
2010-08-06 05:52:30 51°22.862 2°52.612 10.5 13.2 8 23.8
2010-08-06 05:52:35 51°22.881 2°52.614 10 13.3 5 23.7
2010-08-06 05:52:40 51°22.899 2°52.619 10.7 13.3 9 23.4
2010-08-06 05:52:45 51°22.917 2°52.621 10.5 13.3 6 23.7
2010-08-06 05:52:50 51°22.935 2°52.625 10.3 13.2 7 23.4
2010-08-06 05:52:56 51°22.957 2°52.629 10.7 13.3 7 22.8
2010-08-06 05:53:00 51°22.972 2°52.632 10.5 13.3 7 22.1
2010-08-06 05:53:05 51°22.99 2°52.635 10 13.3 7 21.3
2010-08-06 05:53:10 51°23.008 2°52.639 10.8 12.9 5 22.1
2010-08-06 05:53:15 51°23.026 2°52.642 9.7 12.9 7 24.1
2010-08-06 05:53:20 51°23.044 2°52.646 10.6 12.9 8 23.6
2010-08-06 05:53:24 51°23.058 2°52.649 10.6 13 6 23.5
2010-08-06 05:53:30 51°23.079 2°52.653 10 13.1 8 23.4
2010-08-06 05:53:35 51°23.097 2°52.656 10.4 13 7 22.8
2010-08-06 05:53:40 51°23.115 2°52.661 11 13.1 8 22.3
2010-08-06 05:53:45 51°23.133 2°52.665 12 13 9 21.8
2010-08-06 05:53:50 51°23.151 2°52.67 12.9 12.8 9 21.8
2010-08-06 05:53:55 51°23.169 2°52.674 13.2 13 11 21.8
2010-08-06 05:54:00 51°23.187 2°52.681 14.6 13 11 21.4
2010-08-06 05:54:05 51°23.205 2°52.685 13.5 13 12 20.7
2010-08-06 05:54:10 51°23.222 2°52.691 14.6 13.1 9 20.6
2010-08-06 05:54:15 51°23.24 2°52.697 14.5 13.1 13 20.5
2010-08-06 05:54:20 51°23.257 2°52.702 14.5 13 10 19.8
2010-08-06 05:54:25 51°23.275 2°52.708 15.3 13 13 20.1
2010-08-06 05:54:30 51°23.293 2°52.713 14.4 13 11 21.1
2010-08-06 05:54:36 51°23.314 2°52.721 15.4 13.1 11 21.2
2010-08-06 05:54:40 51°23.329 2°52.725 14.6 13.2 10 21.4
2010-08-06 05:54:44 51°23.343 2°52.73 15.1 13.1 11 20.2
2010-08-06 05:54:50 51°23.364 2°52.736 14.8 13.1 10 19.6
2010-08-06 05:54:55 51°23.382 2°52.742 14.7 12.9 11 21.1
2010-08-06 05:55:00 51°23.399 2°52.747 14.4 12.9 11 21.6
2010-08-06 05:55:05 51°23.417 2°52.754 15.2 12.9 11 21.1
2010-08-06 05:55:10 51°23.434 2°52.758 14.5 12.9 11 21.6
2010-08-06 05:55:16 51°23.456 2°52.766 14.8 13 11 21.7
2010-08-06 05:55:20 51°23.47 2°52.77 14.6 13.1 10 21.3
2010-08-06 05:55:25 51°23.488 2°52.775 13.9 13.1 11 21.2
2010-08-06 05:55:30 51°23.505 2°52.781 14.6 12.9 11 21
2010-08-06 05:55:35 51°23.523 2°52.785 14.6 13 10 21.2
2010-08-06 05:55:40 51°23.541 2°52.792 14.8 13 11 21.4
2010-08-06 05:55:44 51°23.555 2°52.795 14.6 13.1 11 21.3
2010-08-06 05:55:50 51°23.577 2°52.803 15.2 13.1 10 21.4
2010-08-06 05:55:55 51°23.595 2°52.808 14.5 13.2 12 21.4
2010-08-06 05:56:00 51°23.612 2°52.814 15 13.2 12 20.4
2010-08-06 05:56:05 51°23.63 2°52.819 14.5 13.1 12 20.8
2010-08-06 05:56:10 51°23.648 2°52.825 14.6 13.2 9 21.1
2010-08-06 05:56:16 51°23.67 2°52.832 14.3 13.2 12 21.1
2010-08-06 05:56:20 51°23.684 2°52.835 14 13.1 10 19.9
2010-08-06 05:56:25 51°23.702 2°52.84 13.9 13.1 10 20.4
2010-08-06 05:56:30 51°23.72 2°52.847 14.5 13.1 11 20.9
2010-08-06 05:56:35 51°23.737 2°52.851 13.9 13.1 11 20.5
2010-08-06 05:56:40 51°23.755 2°52.858 15.1 13.1 13 20.4
2010-08-06 05:56:45 51°23.773 2°52.862 13.7 13.2 8 19
2010-08-06 05:56:50 51°23.791 2°52.869 14.8 13 12 19.3
2010-08-06 05:56:55 51°23.809 2°52.873 14.4 13.1 10 20.1
2010-08-06 05:57:00 51°23.826 2°52.879 14.2 12.9 12 20.1
2010-08-06 05:57:05 51°23.844 2°52.885 14.3 13.1 11 19.6
2010-08-06 05:57:10 51°23.862 2°52.891 14.3 13 12 17.8
2010-08-06 05:57:15 51°23.879 2°52.896 14.5 12.9 11 18.1
2010-08-06 05:57:20 51°23.897 2°52.902 14.3 12.8 11 18.2
2010-08-06 05:57:25 51°23.914 2°52.907 14.5 12.7 11 18
2010-08-06 05:57:30 51°23.932 2°52.913 14.4 12.9 11 18.5
2010-08-06 05:57:36 51°23.953 2°52.919 14.4 12.9 11 18.1
2010-08-06 05:57:40 51°23.967 2°52.925 14.7 13 13 16.9
2010-08-06 05:57:45 51°23.985 2°52.93 14.3 13 10 18
2010-08-06 05:57:50 51°24.002 2°52.936 14.6 13 13 16.4
2010-08-06 05:57:55 51°24.02 2°52.942 14.5 13.1 12 17.8
2010-08-06 05:58:00 51°24.038 2°52.947 14.6 13.1 11 16.8
2010-08-06 05:58:05 51°24.056 2°52.953 14.5 13 11 16.7
2010-08-06 05:58:10 51°24.073 2°52.958 14.2 13 11 16.7
2010-08-06 05:58:15 51°24.091 2°52.965 14.9 13.1 13 17.8
2010-08-06 05:58:20 51°24.109 2°52.97 14.3 13.1 10 18.1
2010-08-06 05:58:25 51°24.126 2°52.978 15.1 13 13 18.1
2010-08-06 05:58:30 51°24.144 2°52.982 13.9 13.1 10 18.6
2010-08-06 05:58:35 51°24.162 2°52.99 14.8 13.1 13 18.8
2010-08-06 05:58:40 51°24.18 2°52.993 14 13.1 8 18.8
2010-08-06 05:58:45 51°24.197 2°53.001 14.5 13.1 15 18.9
2010-08-06 05:58:50 51°24.215 2°53.004 14.2 13.1 8 19.4
2010-08-06 05:58:55 51°24.233 2°53.012 14.5 13 14 19
2010-08-06 05:59:00 51°24.251 2°53.016 14.5 13 10 18.4
2010-08-06 05:59:05 51°24.268 2°53.022 14.3 13 13 18.8
2010-08-06 05:59:10 51°24.286 2°53.028 14.6 12.9 11 19.3
2010-08-06 05:59:15 51°24.303 2°53.034 14.3 12.9 13 18.6
2010-08-06 05:59:20 51°24.321 2°53.04 14.4 13 11 17.8
2010-08-06 05:59:25 51°24.338 2°53.045 14 12.8 10 16
2010-08-06 05:59:30 51°24.356 2°53.051 14.4 13 11 16.7
2010-08-06 05:59:36 51°24.377 2°53.056 13.6 13 10 18
2010-08-06 05:59:40 51°24.391 2°53.062 14.4 13 13 16.8
2010-08-06 05:59:45 51°24.409 2°53.067 14.6 12.9 9 17.2
2010-08-06 05:59:50 51°24.426 2°53.073 13.8 12.9 13 18.1
2010-08-06 05:59:56 51°24.447 2°53.08 14.9 12.9 10 17.7
2010-08-06 06:00:00 51°24.461 2°53.086 14.2 12.9 12 17.8
2010-08-06 06:00:05 51°24.478 2°53.092 14.6 12.9 12 18.4
2010-08-06 06:00:10 51°24.496 2°53.098 14.6 13 12 19.6
2010-08-06 06:00:15 51°24.513 2°53.103 14.4 12.8 11 18.9
2010-08-06 06:00:20 51°24.531 2°53.109 14.2 12.9 11 18.8
2010-08-06 06:00:25 51°24.548 2°53.115 14.2 12.9 12 19.1
2010-08-06 06:00:30 51°24.566 2°53.121 14.6 13 11 19.2
2010-08-06 06:00:35 51°24.584 2°53.126 14 13 12 18.9
2010-08-06 06:00:40 51°24.601 2°53.132 14.2 13.1 11 18.2
2010-08-06 06:00:45 51°24.619 2°53.137 14 12.9 10 19.1
2010-08-06 06:00:50 51°24.636 2°53.143 14 13 12 20.3
2010-08-06 06:00:56 51°24.658 2°53.15 14.2 13.1 11 20.4
2010-08-06 06:01:00 51°24.672 2°53.155 14.6 13.2 12 20.7
2010-08-06 06:01:05 51°24.69 2°53.16 14.2 13.2 11 20.4
2010-08-06 06:01:10 51°24.708 2°53.167 14.6 13.1 12 19.9
2010-08-06 06:01:15 51°24.726 2°53.172 14.5 13.1 12 18.6
2010-08-06 06:01:20 51°24.744 2°53.179 14.9 13.1 12 17.6
2010-08-06 06:01:25 51°24.762 2°53.184 14.3 13.1 10 18
2010-08-06 06:01:30 51°24.779 2°53.191 13.9 13 12 18.7
2010-08-06 06:01:36 51°24.8 2°53.197 14 13 11 19.7
2010-08-06 06:01:40 51°24.814 2°53.202 14.5 13 13 19
2010-08-06 06:01:45 51°24.831 2°53.207 13.9 12.8 12 18.9
2010-08-06 06:01:50 51°24.849 2°53.214 14.7 12.8 13 19.2
2010-08-06 06:01:56 51°24.87 2°53.22 14.2 12.8 11 19.1
2010-08-06 06:02:00 51°24.883 2°53.225 14.5 12.8 13 19.2
2010-08-06 06:02:05 51°24.901 2°53.23 13.8 12.9 10 18.3
2010-08-06 06:02:10 51°24.918 2°53.237 14.4 12.9 12 18.9
2010-08-06 06:02:15 51°24.936 2°53.242 14.1 12.8 11 19.3
2010-08-06 06:02:20 51°24.953 2°53.248 13.9 12.8 11 19.7
2010-08-06 06:02:24 51°24.967 2°53.253 14.2 12.9 11 20.4
2010-08-06 06:02:30 51°24.988 2°53.258 14.2 12.9 11 20.6
2010-08-06 06:02:35 51°25.006 2°53.264 13.9 12.9 12 20.9
2010-08-06 06:02:40 51°25.024 2°53.27 14.2 12.8 11 20.8
2010-08-06 06:02:45 51°25.041 2°53.276 14 12.8 12 20.9
2010-08-06 06:02:50 51°25.058 2°53.282 14.6 12.9 11 20.9
2010-08-06 06:02:55 51°25.076 2°53.287 14.1 13 13 20.1
2010-08-06 06:03:00 51°25.094 2°53.293 14.7 13 12 21.3
2010-08-06 06:03:05 51°25.112 2°53.298 14.1 13 12 21.2
2010-08-06 06:03:10 51°25.129 2°53.305 14.6 13 10 21.9
2010-08-06 06:03:15 51°25.147 2°53.31 13.9 13 13 22
2010-08-06 06:03:20 51°25.164 2°53.316 14.7 12.9 11 22.5
2010-08-06 06:03:25 51°25.182 2°53.321 14.1 12.9 11 22.6
2010-08-06 06:03:30 51°25.2 2°53.327 14.6 12.9 11 22.6
2010-08-06 06:03:36 51°25.221 2°53.334 14.3 13.1 12 22.9
2010-08-06 06:03:40 51°25.235 2°53.338 14.5 13 11 22.8
2010-08-06 06:03:45 51°25.253 2°53.343 13.9 12.9 11 22.4
2010-08-06 06:03:50 51°25.27 2°53.349 13.9 12.9 12 22.5
2010-08-06 06:03:55 51°25.288 2°53.354 13.9 12.8 9 22.6
2010-08-06 06:04:00 51°25.305 2°53.361 14.4 12.8 14 22.4
2010-08-06 06:04:05 51°25.323 2°53.365 14 12.8 9 22.9
2010-08-06 06:04:10 51°25.34 2°53.372 14.1 12.8 14 23.5
2010-08-06 06:04:16 51°25.361 2°53.376 14.3 12.8 7 23.2
2010-08-06 06:04:20 51°25.374 2°53.383 14.1 12.8 14 23.3
2010-08-06 06:04:25 51°25.392 2°53.387 13.9 12.7 8 23.2
2010-08-06 06:04:30 51°25.409 2°53.394 13.8 12.8 14 23.1
2010-08-06 06:04:35 51°25.427 2°53.399 14.5 12.7 9 23.3
2010-08-06 06:04:40 51°25.444 2°53.404 13.7 12.7 11 23.8
2010-08-06 06:04:45 51°25.461 2°53.41 14.8 12.8 12 23.5
2010-08-06 06:04:50 51°25.479 2°53.415 13.7 12.8 13 23.9
2010-08-06 06:04:55 51°25.496 2°53.422 14.5 12.7 10 24.6
2010-08-06 06:05:00 51°25.513 2°53.426 14 12.7 10 24.9
2010-08-06 06:05:05 51°25.531 2°53.434 14.7 12.8 12 25.1
2010-08-06 06:05:10 51°25.548 2°53.438 14 12.9 11 25.3
2010-08-06 06:05:15 51°25.566 2°53.445 14.6 12.7 13 25
2010-08-06 06:05:20 51°25.583 2°53.45 14.7 12.8 11 25.3
2010-08-06 06:05:25 51°25.601 2°53.455 14.2 12.7 12 25.6
2010-08-06 06:05:30 51°25.618 2°53.461 14.8 12.8 10 26.1
2010-08-06 06:05:36 51°25.639 2°53.467 14.1 12.8 11 25.9
2010-08-06 06:05:40 51°25.653 2°53.471 13.8 12.8 10 25.9
2010-08-06 06:05:45 51°25.67 2°53.477 14.5 12.8 12 26
2010-08-06 06:05:50 51°25.688 2°53.482 13.9 12.9 10 26.4
2010-08-06 06:05:55 51°25.705 2°53.488 13.9 12.9 13 26.7
2010-08-06 06:06:00 51°25.723 2°53.493 14.8 13 11 26.9
2010-08-06 06:06:05 51°25.741 2°53.498 13.7 13 10 26.7
2010-08-06 06:06:10 51°25.758 2°53.505 15 13 12 26.9
2010-08-06 06:06:16 51°25.78 2°53.51 13.6 13 11 27
2010-08-06 06:06:20 51°25.794 2°53.515 14.5 12.9 12 27.5
2010-08-06 06:06:24 51°25.808 2°53.518 13.9 13 12 27.6
2010-08-06 06:06:30 51°25.829 2°53.526 14.3 12.9 12 27.9
2010-08-06 06:06:35 51°25.846 2°53.531 14.6 12.8 12 28.1
2010-08-06 06:06:40 51°25.863 2°53.537 14.6 12.7 11 28.8
2010-08-06 06:06:45 51°25.881 2°53.542 14.5 12.7 13 28.9
2010-08-06 06:06:50 51°25.898 2°53.548 15.1 12.9 10 29.1
2010-08-06 06:06:55 51°25.916 2°53.553 14.2 12.8 12 29.1
2010-08-06 06:07:00 51°25.934 2°53.56 15.2 13 11 29.5
2010-08-06 06:07:05 51°25.951 2°53.564 14.2 13 11 29.8
2010-08-06 06:07:10 51°25.969 2°53.572 14.6 12.9 12 29.8
2010-08-06 06:07:15 51°25.987 2°53.575 14.1 13 9 30.2
2010-08-06 06:07:20 51°26.004 2°53.582 14.6 13 13 29.9
2010-08-06 06:07:24 51°26.018 2°53.586 14.6 12.9 10 30.9
2010-08-06 06:07:30 51°26.039 2°53.593 14.5 12.9 12 31.4
2010-08-06 06:07:35 51°26.057 2°53.598 14.2 12.9 10 32
2010-08-06 06:07:40 51°26.074 2°53.604 14.3 12.9 11 31.9
2010-08-06 06:07:45 51°26.092 2°53.609 14.1 12.7 11 31.2
2010-08-06 06:07:50 51°26.109 2°53.614 14.1 12.8 10 31.7
2010-08-06 06:07:55 51°26.126 2°53.62 14.1 12.8 11 32.3
2010-08-06 06:08:00 51°26.144 2°53.624 13.2 12.7 9 31.8
2010-08-06 06:08:05 51°26.161 2°53.63 14.2 12.8 12 31.5
2010-08-06 06:08:10 51°26.179 2°53.634 13.9 12.9 9 31.8
2010-08-06 06:08:16 51°26.2 2°53.641 13.9 13 11 32.1
2010-08-06 06:08:20 51°26.214 2°53.644 13.8 13 8 31.9
2010-08-06 06:08:25 51°26.232 2°53.65 13.9 13.1 13 32.2
2010-08-06 06:08:30 51°26.25 2°53.654 14.2 13.1 8 32.4
2010-08-06 06:08:35 51°26.267 2°53.661 13.9 12.8 13 32.1
2010-08-06 06:08:40 51°26.285 2°53.665 13.9 12.9 8 32.2
2010-08-06 06:08:45 51°26.302 2°53.671 14.1 12.9 13 32.5
2010-08-06 06:08:50 51°26.32 2°53.675 14.1 12.9 8 32.8
2010-08-06 06:08:55 51°26.338 2°53.681 13.9 13 12 32.8
2010-08-06 06:09:00 51°26.356 2°53.686 14.3 13 10 33.1
2010-08-06 06:09:05 51°26.373 2°53.691 13.8 12.9 12 33.3
2010-08-06 06:09:10 51°26.391 2°53.696 14.3 12.9 11 33.9
2010-08-06 06:09:15 51°26.408 2°53.7 13.8 12.8 9 33.4
2010-08-06 06:09:20 51°26.425 2°53.707 14.2 12.6 13 31.9
2010-08-06 06:09:25 51°26.443 2°53.711 14.2 12.7 8 32
2010-08-06 06:09:30 51°26.46 2°53.717 13.9 12.7 12 32.5
2010-08-06 06:09:35 51°26.478 2°53.722 14.2 12.8 9 32.4
2010-08-06 06:09:40 51°26.496 2°53.727 13.9 12.9 10 32.4
2010-08-06 06:09:45 51°26.514 2°53.733 13.9 12.9 10 32.2
2010-08-06 06:09:50 51°26.531 2°53.738 14 12.8 11 32.4
2010-08-06 06:09:55 51°26.549 2°53.743 14.6 12.9 11 32.6
2010-08-06 06:10:00 51°26.566 2°53.748 14.1 13 10 32.6
2010-08-06 06:10:05 51°26.583 2°53.754 15.3 12.9 12 32.8
2010-08-06 06:10:10 51°26.601 2°53.758 14.5 12.9 10 33
2010-08-06 06:10:16 51°26.622 2°53.765 14.8 12.9 11 32.8
2010-08-06 06:10:20 51°26.636 2°53.769 14.1 12.9 10 32.9
2010-08-06 06:10:25 51°26.654 2°53.775 14.6 12.9 12 32
2010-08-06 06:10:30 51°26.672 2°53.78 14.7 12.9 9 31.5
2010-08-06 06:10:35 51°26.69 2°53.784 13.8 12.9 11 31.6
2010-08-06 06:10:40 51°26.707 2°53.79 14.6 13 11 31.7
2010-08-06 06:10:45 51°26.725 2°53.794 14 13.1 9 31.5
2010-08-06 06:10:50 51°26.743 2°53.8 13.9 13 10 30.9
2010-08-06 06:10:56 51°26.764 2°53.806 14 13 10 30.9
2010-08-06 06:11:00 51°26.778 2°53.81 14.1 13 10 30.4
2010-08-06 06:11:05 51°26.796 2°53.815 14.2 13 12 28.9
2010-08-06 06:11:10 51°26.814 2°53.82 14.2 13 9 27.6
2010-08-06 06:11:15 51°26.831 2°53.826 14.5 12.9 12 26.6
2010-08-06 06:11:20 51°26.849 2°53.83 14.3 12.9 9 27
2010-08-06 06:11:25 51°26.867 2°53.836 14.6 13 13 27.4
2010-08-06 06:11:30 51°26.885 2°53.84 14.5 13 8 26.9
2010-08-06 06:11:35 51°26.902 2°53.846 14.1 12.9 12 26.8
2010-08-06 06:11:40 51°26.92 2°53.851 14.4 13 9 26.2
2010-08-06 06:11:45 51°26.937 2°53.856 14.1 12.9 10 26
2010-08-06 06:11:50 51°26.955 2°53.861 14.2 12.9 11 25.6
2010-08-06 06:11:55 51°26.973 2°53.865 13.9 12.9 9 24.6
2010-08-06 06:12:00 51°26.99 2°53.871 14.1 12.9 11 23.9
2010-08-06 06:12:05 51°27.007 2°53.876 14.5 12.7 10 24
2010-08-06 06:12:10 51°27.024 2°53.882 14.7 12.9 11 24.3
2010-08-06 06:12:16 51°27.045 2°53.888 14.6 12.8 10 24.3
2010-08-06 06:12:20 51°27.06 2°53.892 14.8 12.8 11 24.2
2010-08-06 06:12:24 51°27.074 2°53.896 14.6 12.9 10 24.3
2010-08-06 06:12:30 51°27.095 2°53.903 14.4 12.9 10 24.2
2010-08-06 06:12:35 51°27.113 2°53.908 14.5 13 11 24.3
2010-08-06 06:12:40 51°27.131 2°53.914 14.6 13.1 11 24.6
2010-08-06 06:12:45 51°27.149 2°53.918 14.1 13.1 10 24.4
2010-08-06 06:12:50 51°27.167 2°53.925 14.6 13.1 12 24.3
2010-08-06 06:12:56 51°27.188 2°53.93 14.2 13 10 24.7
2010-08-06 06:13:00 51°27.202 2°53.935 14.6 13 11 24.5
2010-08-06 06:13:05 51°27.219 2°53.94 14.6 13 10 24.8
2010-08-06 06:13:10 51°27.237 2°53.945 14.4 13 10 24.7
2010-08-06 06:13:15 51°27.255 2°53.951 14.4 13 11 24.7
2010-08-06 06:13:20 51°27.273 2°53.955 14.3 13 10 24.9
2010-08-06 06:13:25 51°27.291 2°53.96 14 13.1 12 25.2
2010-08-06 06:13:30 51°27.309 2°53.965 14.7 13.1 9 24.9
2010-08-06 06:13:35 51°27.327 2°53.97 13.9 13 12 25
2010-08-06 06:13:40 51°27.345 2°53.975 14.5 13.1 10 24.9
2010-08-06 06:13:45 51°27.363 2°53.98 14.3 13 10 25
2010-08-06 06:13:50 51°27.38 2°53.986 14.3 13 12 24.9
2010-08-06 06:13:55 51°27.398 2°53.991 14.3 13 9 24.6
2010-08-06 06:14:00 51°27.415 2°53.997 14.4 12.9 10 24.9
2010-08-06 06:14:05 51°27.433 2°54.002 14.6 13 11 24.5
2010-08-06 06:14:10 51°27.45 2°54.008 14.7 13 10 24.6
2010-08-06 06:14:15 51°27.468 2°54.013 14.4 13 12 24.3
2010-08-06 06:14:20 51°27.486 2°54.019 14.5 13.1 11 25.4
2010-08-06 06:14:25 51°27.503 2°54.023 13.5 13 9 24.7
2010-08-06 06:14:30 51°27.52 2°54.03 14.6 13.1 12 25
2010-08-06 06:14:35 51°27.537 2°54.033 13.9 13.1 10 23.4
2010-08-06 06:14:40 51°27.555 2°54.039 14.6 13 13 24.6
2010-08-06 06:14:45 51°27.573 2°54.043 14.2 12.9 10 24.9
2010-08-06 06:14:50 51°27.59 2°54.049 13.7 12.9 10 25.4
2010-08-06 06:14:56 51°27.612 2°54.056 14.3 13 11 25.3
2010-08-06 06:15:00 51°27.626 2°54.059 13.7 13 9 25.4
2010-08-06 06:15:05 51°27.643 2°54.066 14.4 12.9 13 24.3
2010-08-06 06:15:10 51°27.661 2°54.069 13.2 12.9 7 22.6
2010-08-06 06:15:15 51°27.678 2°54.077 15.3 12.8 14 24.4
2010-08-06 06:15:20 51°27.696 2°54.079 13.5 12.8 7 24.7
2010-08-06 06:15:25 51°27.713 2°54.087 14.9 12.8 14 21.4
2010-08-06 06:15:30 51°27.731 2°54.09 14.1 12.8 9 23.3
2010-08-06 06:15:36 51°27.752 2°54.099 14.3 12.9 13 23.7
2010-08-06 06:15:40 51°27.766 2°54.102 13.9 12.8 9 20.9
2010-08-06 06:15:45 51°27.783 2°54.108 14.1 12.6 13 22.7
2010-08-06 06:15:50 51°27.801 2°54.114 14.3 12.8 11 23.2
2010-08-06 06:15:55 51°27.818 2°54.119 14.2 12.6 12 22.5
2010-08-06 06:16:00 51°27.835 2°54.125 14.7 12.6 12 22
2010-08-06 06:16:05 51°27.852 2°54.131 14.2 12.7 11 19.4
2010-08-06 06:16:10 51°27.869 2°54.137 14.8 12.5 13 21.1
2010-08-06 06:16:15 51°27.886 2°54.142 15.3 12.6 12 21.5
2010-08-06 06:16:20 51°27.904 2°54.15 14.5 12.9 12 22.1
2010-08-06 06:16:25 51°27.921 2°54.155 13.9 12.5 11 21.7
2010-08-06 06:16:30 51°27.938 2°54.161 14.6 12.6 12 21.3
2010-08-06 06:16:35 51°27.955 2°54.166 14.2 12.6 10 19.9
2010-08-06 06:16:40 51°27.972 2°54.171 13.8 12.6 12 21.6
2010-08-06 06:16:45 51°27.988 2°54.177 14.3 12.6 12 21.1
2010-08-06 06:16:50 51°28.005 2°54.183 14 12.6 11 20.3
2010-08-06 06:16:56 51°28.027 2°54.189 14.1 12.6 11 21.4
2010-08-06 06:17:00 51°28.041 2°54.193 13.9 12.6 11 22
2010-08-06 06:17:04 51°28.055 2°54.198 14 12.8 13 20.6
2010-08-06 06:17:10 51°28.075 2°54.205 14.3 12.7 11 20.1
2010-08-06 06:17:15 51°28.093 2°54.21 13.8 12.5 11 20.4
2010-08-06 06:17:20 51°28.11 2°54.216 14.6 12.7 13 22.1
2010-08-06 06:17:25 51°28.127 2°54.221 13.5 12.7 10 22.2
2010-08-06 06:17:30 51°28.144 2°54.229 14.7 12.8 13 20.6
2010-08-06 06:17:36 51°28.165 2°54.234 13.9 12.7 10 21.1
2010-08-06 06:17:40 51°28.179 2°54.239 13.7 12.7 11 21.8
2010-08-06 06:17:45 51°28.196 2°54.244 14.2 12.7 11 22.1
2010-08-06 06:17:50 51°28.213 2°54.251 14.4 12.8 10 21.4
2010-08-06 06:17:55 51°28.23 2°54.255 13.9 12.6 11 21.7
2010-08-06 06:18:00 51°28.247 2°54.263 14.6 12.6 12 21.9
2010-08-06 06:18:05 51°28.264 2°54.269 14 12.6 11 21.7
2010-08-06 06:18:10 51°28.281 2°54.276 14.3 12.5 12 22.1
2010-08-06 06:18:15 51°28.298 2°54.283 14.2 12.6 12 22.9
2010-08-06 06:18:20 51°28.315 2°54.288 14.5 12.6 13 22.6
2010-08-06 06:18:25 51°28.332 2°54.294 14.7 12.7 12 20.7
2010-08-06 06:18:30 51°28.35 2°54.3 14.1 12.7 13 21.5
2010-08-06 06:18:35 51°28.367 2°54.307 14.6 12.6 13 21.2
2010-08-06 06:18:40 51°28.384 2°54.312 14.6 12.5 12 21.7
2010-08-06 06:18:45 51°28.401 2°54.318 14.3 12.5 13 22.3
2010-08-06 06:18:50 51°28.418 2°54.324 14.5 12.6 12 22.4
2010-08-06 06:18:56 51°28.439 2°54.331 14.5 12.4 12 21.7
2010-08-06 06:19:00 51°28.452 2°54.335 14.1 12.4 12 22.1
2010-08-06 06:19:05 51°28.469 2°54.342 14.4 12.5 12 23.2
2010-08-06 06:19:10 51°28.485 2°54.347 13.5 12.3 14 23.6
2010-08-06 06:19:15 51°28.502 2°54.354 14.4 12.4 12 23.5
2010-08-06 06:19:20 51°28.519 2°54.358 13.9 12.4 10 22.1
2010-08-06 06:19:25 51°28.535 2°54.365 13.9 12.4 14 23.5
2010-08-06 06:19:30 51°28.553 2°54.37 13.3 12.5 11 22.9
2010-08-06 06:19:36 51°28.572 2°54.378 14.6 12.4 14 22.9
2010-08-06 06:19:40 51°28.586 2°54.382 14.1 12.5 10 23.5
2010-08-06 06:19:45 51°28.605 2°54.389 14.2 12.5 14 23.8
2010-08-06 06:19:50 51°28.622 2°54.395 14.2 12.5 12 24.5
2010-08-06 06:19:55 51°28.639 2°54.402 14.7 12.6 12 24.7
2010-08-06 06:20:00 51°28.657 2°54.407 13.9 12.6 11 24.8
2010-08-06 06:20:05 51°28.673 2°54.415 15 12.7 15 24.9
2010-08-06 06:20:10 51°28.691 2°54.419 13.8 12.7 10 25.3
2010-08-06 06:20:15 51°28.708 2°54.427 14.8 12.7 14 25.1
2010-08-06 06:20:20 51°28.725 2°54.431 13.7 12.7 9 25.1
2010-08-06 06:20:25 51°28.742 2°54.44 14.6 12.8 16 25.4
2010-08-06 06:20:30 51°28.76 2°54.444 14.5 12.9 11 25.3
2010-08-06 06:20:35 51°28.777 2°54.451 14.7 12.8 13 25.6
2010-08-06 06:20:40 51°28.794 2°54.457 14.6 12.9 11 25.7
2010-08-06 06:20:45 51°28.812 2°54.461 12.2 12.7 12 25.4
2010-08-06 06:20:50 51°28.829 2°54.467 12.3 12.8 10 25.8
2010-08-06 06:20:55 51°28.847 2°54.47 10.5 12.7 9 26.2
2010-08-06 06:21:00 51°28.864 2°54.475 10.9 12.7 10 26.6
2010-08-06 06:21:05 51°28.881 2°54.478 9.5 12.8 5 26.6
2010-08-06 06:21:10 51°28.899 2°54.482 9.1 12.7 9 26.3
2010-08-06 06:21:15 51°28.917 2°54.484 8.2 12.7 3 26.4
2010-08-06 06:21:20 51°28.934 2°54.489 8.6 12.7 9 26.1
2010-08-06 06:21:25 51°28.952 2°54.491 8.7 12.7 4 26.6
2010-08-06 06:21:30 51°28.969 2°54.494 7.9 12.7 9 26.7
2010-08-06 06:21:35 51°28.987 2°54.498 8.1 12.7 4 26.6
2010-08-06 06:21:40 51°29.004 2°54.5 7.5 12.7 5 27.1
2010-08-06 06:21:45 51°29.022 2°54.503 8.1 12.8 6 26.9
2010-08-06 06:21:50 51°29.04 2°54.505 7.3 12.8 7 27
2010-08-06 06:21:55 51°29.057 2°54.509 7.8 12.9 5 27.3
2010-08-06 06:22:00 51°29.075 2°54.512 7.3 12.6 5 27.3
2010-08-06 06:22:05 51°29.093 2°54.517 7.7 12.6 7 27.5
2010-08-06 06:22:10 51°29.109 2°54.518 7.7 12.9 5 27.4
2010-08-06 06:22:15 51°29.127 2°54.522 7.7 13 7 27.7
2010-08-06 06:22:20 51°29.145 2°54.523 7.3 13 4 27.8
2010-08-06 06:22:25 51°29.163 2°54.528 7.9 13 7 28.2
2010-08-06 06:22:30 51°29.181 2°54.529 7.4 13.1 4 28.4
2010-08-06 06:22:35 51°29.199 2°54.533 7.4 13 7 28.7
2010-08-06 06:22:40 51°29.217 2°54.536 7.5 13 5 28.4
2010-08-06 06:22:45 51°29.235 2°54.539 7.7 12.8 6 28.5
2010-08-06 06:22:50 51°29.253 2°54.542 7.6 12.8 5 28.6
2010-08-06 06:22:55 51°29.271 2°54.545 7.9 12.8 6 29
2010-08-06 06:23:00 51°29.287 2°54.546 7.6 13 4 28.9
2010-08-06 06:23:05 51°29.305 2°54.551 8.1 13.2 8 29.2
2010-08-06 06:23:10 51°29.323 2°54.551 7.1 13.1 3 29.4
2010-08-06 06:23:15 51°29.341 2°54.555 7.4 13 7 29.6
2010-08-06 06:23:20 51°29.361 2°54.557 7.3 13 5 29.3
2010-08-06 06:23:25 51°29.379 2°54.561 7.6 13.1 7 30.2
2010-08-06 06:23:30 51°29.397 2°54.562 7 13 4 29.8
2010-08-06 06:23:35 51°29.416 2°54.566 8 13.1 6 30
2010-08-06 06:23:40 51°29.434 2°54.567 7.3 13.1 3 29.9
2010-08-06 06:23:45 51°29.452 2°54.571 7.5 13.1 7 29.6
2010-08-06 06:23:50 51°29.47 2°54.572 7.4 13 4 30.1
2010-08-06 06:23:55 51°29.488 2°54.576 7.9 13 7 30.3
2010-08-06 06:24:00 51°29.506 2°54.578 7 12.9 3 29.8
2010-08-06 06:24:05 51°29.523 2°54.581 7.5 12.9 7 30
2010-08-06 06:24:10 51°29.541 2°54.583 8.1 13 5 30.1
2010-08-06 06:24:16 51°29.563 2°54.586 7.7 12.9 5 29.4
2010-08-06 06:24:20 51°29.577 2°54.589 8.4 12.9 7 29.8
2010-08-06 06:24:25 51°29.595 2°54.592 8.2 13 5 29.9
2010-08-06 06:24:30 51°29.613 2°54.595 8.3 13.1 6 29.8
2010-08-06 06:24:35 51°29.631 2°54.598 8.3 13.2 6 29.6
2010-08-06 06:24:40 51°29.648 2°54.601 8.4 13 6 29.7
2010-08-06 06:24:45 51°29.666 2°54.605 8.2 12.9 7 30.5
2010-08-06 06:24:50 51°29.684 2°54.608 8.7 13 6 30.4
2010-08-06 06:24:55 51°29.703 2°54.61 8.1 12.9 7 30.1
2010-08-06 06:25:00 51°29.72 2°54.614 8.8 13 7 30.6
2010-08-06 06:25:05 51°29.738 2°54.617 8.4 13 6 30.6
2010-08-06 06:25:10 51°29.756 2°54.621 8.4 13 8 30.8
2010-08-06 06:25:15 51°29.774 2°54.624 8.5 13 6 31
2010-08-06 06:25:20 51°29.792 2°54.627 8.1 13 7 31.3
2010-08-06 06:25:26 51°29.814 2°54.631 8.3 13 5 31.4
2010-08-06 06:25:31 51°29.832 2°54.636 8.2 13.2 9 31.8
2010-08-06 06:25:36 51°29.85 2°54.636 8.4 12.9 2 31.6
2010-08-06 06:25:40 51°29.864 2°54.641 9 12.9 10 32.3
2010-08-06 06:25:46 51°29.886 2°54.643 8.6 13.1 1 33.2
2010-08-06 06:25:50 51°29.9 2°54.647 8.1 13 11 32.9
2010-08-06 06:25:55 51°29.918 2°54.651 8.7 13 3 32.7
2010-08-06 06:26:00 51°29.936 2°54.653 7.7 13 6 33.4
2010-08-06 06:26:06 51°29.957 2°54.658 8.8 13.1 8 33.1
2010-08-06 06:26:10 51°29.972 2°54.659 8.1 13.1 6 32.6
2010-08-06 06:26:16 51°29.993 2°54.664 8.7 13 7 33
2010-08-06 06:26:20 51°30.008 2°54.666 8 13 4 33.8
2010-08-06 06:26:26 51°30.029 2°54.671 8.5 13 8 34.4
2010-08-06 06:26:30 51°30.044 2°54.673 8.4 13.1 6 34.2
2010-08-06 06:26:37 51°30.069 2°54.678 7.9 13 7 34.1
2010-08-06 06:26:40 51°30.08 2°54.68 8.5 13 8 34.1
2010-08-06 06:26:46 51°30.101 2°54.684 8.6 13.1 5 34.6
2010-08-06 06:26:50 51°30.116 2°54.686 8 13.2 7 34.3
2010-08-06 06:26:56 51°30.138 2°54.691 8.1 13.2 6 34.1